Lincolnton, North Carolina
Current Conditions -  °F | °C
As of 7:15 PM on Thursday 27 Nov 2014 (Local Time) from KIPJ Reporting Station
Clear Clear  
Wind Chill: 34°   Ceiling: Unl
Heat Index: 38°   Visibility: 10mi
Dew Point: 24°   Wind: 6mph
Humidity: 56%   Direction: 300°WNW
Pressure: 30.24"   Gusts: NA
Location:  35.47°N, 81.26°W
Report Text: KIPJ 280015Z AUTO 30005KT 10SM CLR 04/M04 A3024 RMK AO2 T00361045
Loading
Personal Weather Stations






























Interactive Weather Map New forecast layout! Learn more

10-Day Weather Forecast

Advertisements
Track Severe Weather on mobile